Flight Track Log - Related Links

Times and Time Zones

All times are in EDT time to prevent confusion due to time zone crossing. See the AWI3551 flight status page for this flight to view local times or setup timezone preferences in your user account.

Time Position Orientation Groundspeed Altitude Reporting Facility
EDT Latitude Longitude Course Direction KTS MPH feet Rate Location/Type
Fri 05:31:08 AM 42.9333 -78.7500 174° South 147 169 1,500  Level Buffalo TRACON
Fri 05:32:14 AM 42.8833 -78.8000 216° Southwest 222 255 3,200 1,727 Climbing Buffalo TRACON
Fri 05:33:00 AM 42.6114 -78.6823 172° South  Level FlightAware Approximate
Fri 05:33:20 AM 42.8050 -78.8089 185° South 267 307 5,300  Level Cleveland Center
Fri 05:34:00 AM 42.5162 -78.6638 173° South  Level FlightAware Approximate
Fri 05:34:20 AM 42.7358 -78.7853 166° South 278 320 7,700  Level Cleveland Center
Fri 05:35:00 AM 42.4206 -78.6500 180° South  Level FlightAware Approximate
Fri 05:35:20 AM 42.6583 -78.7622 168° South 278 320 10,700  Level Cleveland Center
Fri 05:36:00 AM 42.3246 -78.6440 174° South  Level FlightAware Approximate
Fri 05:36:20 AM 42.5767 -78.7392 168° South 283 326 12,200  Level Cleveland Center
Fri 05:37:20 AM 42.4889 -78.7164 169° South 305 351 13,600 1,450 Climbing Cleveland Center
Fri 05:38:20 AM 42.3969 -78.6939 170° South 322 371 15,100 1,450 Climbing Cleveland Center
Fri 05:39:20 AM 42.3025 -78.6686 169° South 334 384 16,500 1,200 Climbing Cleveland Center
Fri 05:40:20 AM 42.2042 -78.6461 170° South 354 407 17,500 1,000 Climbing Cleveland Center
Fri 05:41:20 AM 42.1164 -78.6264 171° South 359 413 18,500 1,000 Climbing Cleveland Center
Fri 05:42:20 AM 42.0142 -78.6242 179° South 359 413 19,500 1,000 Climbing Cleveland Center
Fri 05:43:20 AM 41.9142 -78.6244 180° South 364 419 20,500 1,000 Climbing Cleveland Center
Fri 05:44:20 AM 41.8161 -78.6189 178° South 364 419 21,500 1,000 Climbing Cleveland Center
Fri 05:45:20 AM 41.7194 -78.5747 161° South 356 410 22,500 750 Climbing Cleveland Center
Fri 05:46:20 AM 41.6286 -78.5081 151° Southeast 361 415 23,000 250 Climbing Cleveland Center
Fri 05:47:20 AM 41.5272 -78.4336 151° Southeast 383 441 23,000  Level Cleveland Center
Fri 05:48:20 AM 41.4278 -78.3619 152° Southeast 399 459 23,000  Level Cleveland Center
Fri 05:49:20 AM 41.3261 -78.2881 151° Southeast 407 468 23,000  Level Cleveland Center
Fri 05:49:55 AM 41.2611 -78.2431 153° Southeast 423 487 23,000  Level New York Center
Fri 05:50:52 AM 41.1578 -78.1653 150° Southeast 433 498 23,000  Level New York Center
Fri 05:51:52 AM 41.0578 -78.0967 153° Southeast 427 491 23,000  Level New York Center
Fri 05:52:53 AM 40.9581 -78.0228 151° Southeast 417 480 23,000  Level New York Center
Fri 05:53:53 AM 40.8700 -77.9283 141° Southeast 412 474 23,000 -454 Level New York Center
Fri 05:54:52 AM 40.7936 -77.8133 131° Southeast 412 474 22,100 -950 Descending New York Center
Fri 05:55:53 AM 40.7175 -77.6906 129° Southeast 424 488 21,100 -976 Descending New York Center
Fri 05:56:55 AM 40.6425 -77.5789 131° Southeast 419 482 20,100 -992 Descending New York Center
Fri 05:57:54 AM 40.5697 -77.4678 131° Southeast 414 476 19,100 -559 Descending New York Center
Fri 05:58:53 AM 40.4983 -77.3653 132° Southeast 388 447 19,000 -50 Descending New York Center
Fri 05:59:53 AM 40.4631 -77.2500 112° Southeast 378 435 19,000  Level New York Center
Fri 06:00:54 AM 40.4233 -77.0964 109° East 395 455 19,000  Level New York Center
Fri 06:01:52 AM 40.3875 -76.9486 108° East 419 482 19,000 -353 Level New York Center
Fri 06:02:53 AM 40.3511 -76.8036 108° East 419 482 18,300 -885 Descending New York Center
Fri 06:03:54 AM 40.3200 -76.6758 108° East 413 475 17,200 -1,041 Descending New York Center
Fri 06:04:54 AM 40.2850 -76.5422 109° East 402 463 16,200 -1,041 Descending New York Center
Fri 06:05:55 AM 40.2483 -76.3975 108° East 393 452 15,100 -1,068 Descending New York Center
Fri 06:06:52 AM 40.2169 -76.2644 107° East 388 447 14,100 -1,068 Descending New York Center
Fri 06:07:53 AM 40.1833 -76.1369 109° East 383 441 13,000 -1,339 Descending New York Center
Fri 06:08:53 AM 40.1547 -76.0289 109° East 360 414 11,400 -1,934 Descending New York Center
Fri 06:09:54 AM 40.1264 -75.9153 108° East 314 361 9,100 -1,820 Descending New York Center
Fri 06:10:55 AM 40.1011 -75.8239 110° East 297 342 7,700 -1,563 Descending New York Center
Fri 06:11:53 AM 40.0806 -75.7167 104° East 286 329 6,000 -864 Descending New York Center
Fri 06:12:53 AM 40.0744 -75.6183 95° East 278 320 6,000  Level New York Center
Fri 06:13:54 AM 40.0372 -75.5561 128° Southeast 230 265 6,000 -541 Level New York Center
Fri 06:14:55 AM 39.9900 -75.5367 162° South 180 207 4,900 -992 Descending New York Center
Fri 06:15:55 AM 39.9408 -75.5197 165° South 180 207 4,000 -454 Descending New York Center
Fri 06:16:54 AM 39.9044 -75.5417 205° Southwest 175 201 4,000 -350 Level New York Center
Fri 06:17:55 AM 39.8617 -75.5711 208° Southwest 168 193 3,300 -732 Descending New York Center
Fri 06:18:16 AM 39.8500 -75.5667 164° South 172 198 3,000 -220 Descending Philadelphia TRACON
Fri 06:19:17 AM 39.8167 -75.5333 142° Southeast 185 213 3,000  Level Philadelphia TRACON
Fri 06:20:17 AM 39.8167 -75.4833 90° East 144 166 3,000  Level Philadelphia TRACON

Login

Don't have an account? Register now (free) for customized features, flight alerts, and more!